sensor_id;sensor_type;location;lat;lon;timestamp;temperature;humidity
46309;DHT22;32037;50.820;6.494;2022-09-24T00:01:56;17.40;54.50
46309;DHT22;32037;50.820;6.494;2022-09-24T00:04:25;17.40;54.50
46309;DHT22;32037;50.820;6.494;2022-09-24T00:06:54;17.40;54.50
46309;DHT22;32037;50.820;6.494;2022-09-24T00:09:22;17.40;54.60
46309;DHT22;32037;50.820;6.494;2022-09-24T00:11:51;17.40;54.50
46309;DHT22;32037;50.820;6.494;2022-09-24T00:14:21;17.40;54.50
46309;DHT22;32037;50.820;6.494;2022-09-24T00:16:49;17.40;54.60
46309;DHT22;32037;50.820;6.494;2022-09-24T00:19:17;17.40;54.50
46309;DHT22;32037;50.820;6.494;2022-09-24T00:21:45;17.40;54.60
46309;DHT22;32037;50.820;6.494;2022-09-24T00:24:17;17.40;54.70
46309;DHT22;32037;50.820;6.494;2022-09-24T00:26:59;17.40;54.70
46309;DHT22;32037;50.820;6.494;2022-09-24T00:29:30;17.40;54.60
46309;DHT22;32037;50.820;6.494;2022-09-24T00:32:01;17.40;54.50
46309;DHT22;32037;50.820;6.494;2022-09-24T00:34:29;17.40;54.50
46309;DHT22;32037;50.820;6.494;2022-09-24T00:36:58;17.40;54.60
46309;DHT22;32037;50.820;6.494;2022-09-24T00:39:26;17.40;54.60
46309;DHT22;32037;50.820;6.494;2022-09-24T00:41:55;17.40;54.60
46309;DHT22;32037;50.820;6.494;2022-09-24T00:44:49;17.40;54.70
46309;DHT22;32037;50.820;6.494;2022-09-24T00:47:33;17.40;54.60
46309;DHT22;32037;50.820;6.494;2022-09-24T00:50:16;17.40;54.70
46309;DHT22;32037;50.820;6.494;2022-09-24T00:52:51;17.40;54.60
46309;DHT22;32037;50.820;6.494;2022-09-24T00:55:23;17.40;54.60
46309;DHT22;32037;50.820;6.494;2022-09-24T00:57:54;17.40;54.60
46309;DHT22;32037;50.820;6.494;2022-09-24T01:00:24;17.30;54.60
46309;DHT22;32037;50.820;6.494;2022-09-24T01:02:57;17.40;54.60
46309;DHT22;32037;50.820;6.494;2022-09-24T01:05:27;17.40;54.70
46309;DHT22;32037;50.820;6.494;2022-09-24T01:11:08;17.40;54.60
46309;DHT22;32037;50.820;6.494;2022-09-24T01:16:44;17.40;54.80
46309;DHT22;32037;50.820;6.494;2022-09-24T01:22:14;17.40;54.70
46309;DHT22;32037;50.820;6.494;2022-09-24T01:24:55;17.30;54.60
46309;DHT22;32037;50.820;6.494;2022-09-24T01:27:37;17.40;54.70
46309;DHT22;32037;50.820;6.494;2022-09-24T01:30:11;17.30;54.60
46309;DHT22;32037;50.820;6.494;2022-09-24T01:32:44;17.30;54.60
46309;DHT22;32037;50.820;6.494;2022-09-24T01:35:18;17.30;54.60
46309;DHT22;32037;50.820;6.494;2022-09-24T01:37:52;17.30;54.60
46309;DHT22;32037;50.820;6.494;2022-09-24T01:40:23;17.30;54.70
46309;DHT22;32037;50.820;6.494;2022-09-24T01:42:54;17.30;54.60
46309;DHT22;32037;50.820;6.494;2022-09-24T01:45:25;17.30;54.60
46309;DHT22;32037;50.820;6.494;2022-09-24T01:47:56;17.30;54.60
46309;DHT22;32037;50.820;6.494;2022-09-24T01:50:28;17.30;54.60
46309;DHT22;32037;50.820;6.494;2022-09-24T01:53:04;17.30;54.60
46309;DHT22;32037;50.820;6.494;2022-09-24T01:55:36;17.30;54.70
46309;DHT22;32037;50.820;6.494;2022-09-24T01:58:09;17.30;54.70
46309;DHT22;32037;50.820;6.494;2022-09-24T02:00:43;17.30;54.70
46309;DHT22;32037;50.820;6.494;2022-09-24T02:03:14;17.30;54.80
46309;DHT22;32037;50.820;6.494;2022-09-24T02:05:47;17.30;54.80
46309;DHT22;32037;50.820;6.494;2022-09-24T02:08:20;17.30;54.60
46309;DHT22;32037;50.820;6.494;2022-09-24T02:10:52;17.30;54.70
46309;DHT22;32037;50.820;6.494;2022-09-24T02:13:24;17.30;54.80
46309;DHT22;32037;50.820;6.494;2022-09-24T02:15:57;17.30;54.80
46309;DHT22;32037;50.820;6.494;2022-09-24T02:18:31;17.30;54.80
46309;DHT22;32037;50.820;6.494;2022-09-24T02:21:04;17.30;54.80
46309;DHT22;32037;50.820;6.494;2022-09-24T02:23:35;17.30;54.90
46309;DHT22;32037;50.820;6.494;2022-09-24T02:26:05;17.30;55.00
46309;DHT22;32037;50.820;6.494;2022-09-24T02:28:35;17.30;55.10
46309;DHT22;32037;50.820;6.494;2022-09-24T02:31:07;17.30;54.90
46309;DHT22;32037;50.820;6.494;2022-09-24T02:33:41;17.30;54.90
46309;DHT22;32037;50.820;6.494;2022-09-24T02:36:28;17.30;54.90
46309;DHT22;32037;50.820;6.494;2022-09-24T02:38:58;17.30;54.80
46309;DHT22;32037;50.820;6.494;2022-09-24T02:41:28;17.30;54.90
46309;DHT22;32037;50.820;6.494;2022-09-24T02:43:57;17.30;54.90
46309;DHT22;32037;50.820;6.494;2022-09-24T02:46:26;17.30;54.80
46309;DHT22;32037;50.820;6.494;2022-09-24T02:48:55;17.30;54.90
46309;DHT22;32037;50.820;6.494;2022-09-24T02:51:23;17.30;54.90
46309;DHT22;32037;50.820;6.494;2022-09-24T02:53:52;17.30;54.90
46309;DHT22;32037;50.820;6.494;2022-09-24T02:56:20;17.30;54.90
46309;DHT22;32037;50.820;6.494;2022-09-24T02:58:48;17.30;55.00
46309;DHT22;32037;50.820;6.494;2022-09-24T03:01:16;17.30;55.10
46309;DHT22;32037;50.820;6.494;2022-09-24T03:03:47;17.30;55.00
46309;DHT22;32037;50.820;6.494;2022-09-24T03:38:52;17.20;55.20
46309;DHT22;32037;50.820;6.494;2022-09-24T03:41:24;17.20;55.20
46309;DHT22;32037;50.820;6.494;2022-09-24T03:43:52;17.20;55.40
46309;DHT22;32037;50.820;6.494;2022-09-24T03:46:21;17.20;55.40
46309;DHT22;32037;50.820;6.494;2022-09-24T03:48:57;17.20;55.30
46309;DHT22;32037;50.820;6.494;2022-09-24T03:51:26;17.20;55.50
46309;DHT22;32037;50.820;6.494;2022-09-24T03:53:56;17.20;55.40
46309;DHT22;32037;50.820;6.494;2022-09-24T03:56:24;17.20;55.40
46309;DHT22;32037;50.820;6.494;2022-09-24T03:58:53;17.20;55.30
46309;DHT22;32037;50.820;6.494;2022-09-24T04:01:22;17.20;55.10
46309;DHT22;32037;50.820;6.494;2022-09-24T04:03:50;17.20;55.10
46309;DHT22;32037;50.820;6.494;2022-09-24T04:06:18;17.20;55.10
46309;DHT22;32037;50.820;6.494;2022-09-24T04:08:52;17.20;55.10
46309;DHT22;32037;50.820;6.494;2022-09-24T04:11:25;17.20;55.10
46309;DHT22;32037;50.820;6.494;2022-09-24T04:13:53;17.20;55.10
46309;DHT22;32037;50.820;6.494;2022-09-24T04:16:22;17.20;55.10
46309;DHT22;32037;50.820;6.494;2022-09-24T04:18:53;17.20;55.10
46309;DHT22;32037;50.820;6.494;2022-09-24T04:21:22;17.20;55.10
46309;DHT22;32037;50.820;6.494;2022-09-24T04:23:50;17.20;55.10
46309;DHT22;32037;50.820;6.494;2022-09-24T04:26:22;17.20;55.10
46309;DHT22;32037;50.820;6.494;2022-09-24T04:28:52;17.20;55.20
46309;DHT22;32037;50.820;6.494;2022-09-24T04:31:20;17.20;55.20
46309;DHT22;32037;50.820;6.494;2022-09-24T04:33:49;17.20;55.20
46309;DHT22;32037;50.820;6.494;2022-09-24T04:36:18;17.20;55.10
46309;DHT22;32037;50.820;6.494;2022-09-24T04:38:46;17.20;55.20
46309;DHT22;32037;50.820;6.494;2022-09-24T04:41:15;17.20;55.10
46309;DHT22;32037;50.820;6.494;2022-09-24T04:43:43;17.20;55.20
46309;DHT22;32037;50.820;6.494;2022-09-24T04:46:14;17.20;55.10
46309;DHT22;32037;50.820;6.494;2022-09-24T04:48:45;17.20;55.20
46309;DHT22;32037;50.820;6.494;2022-09-24T04:51:13;17.20;55.10
46309;DHT22;32037;50.820;6.494;2022-09-24T04:53:42;17.20;55.10
46309;DHT22;32037;50.820;6.494;2022-09-24T04:56:11;17.10;55.10
46309;DHT22;32037;50.820;6.494;2022-09-24T04:58:40;17.20;55.10
46309;DHT22;32037;50.820;6.494;2022-09-24T05:01:08;17.10;55.10
46309;DHT22;32037;50.820;6.494;2022-09-24T05:03:40;17.10;55.10
46309;DHT22;32037;50.820;6.494;2022-09-24T05:06:09;17.10;55.10
46309;DHT22;32037;50.820;6.494;2022-09-24T05:08:37;17.10;55.20
46309;DHT22;32037;50.820;6.494;2022-09-24T05:11:06;17.20;55.30
46309;DHT22;32037;50.820;6.494;2022-09-24T05:13:34;17.10;55.10
46309;DHT22;32037;50.820;6.494;2022-09-24T05:16:03;17.10;55.10
46309;DHT22;32037;50.820;6.494;2022-09-24T05:18:32;17.10;55.10
46309;DHT22;32037;50.820;6.494;2022-09-24T05:21:03;17.10;55.20
46309;DHT22;32037;50.820;6.494;2022-09-24T05:23:32;17.10;55.20
46309;DHT22;32037;50.820;6.494;2022-09-24T05:26:00;17.10;55.20
46309;DHT22;32037;50.820;6.494;2022-09-24T05:28:46;17.10;55.20
46309;DHT22;32037;50.820;6.494;2022-09-24T05:31:14;17.10;55.20
46309;DHT22;32037;50.820;6.494;2022-09-24T05:33:44;17.10;55.20
46309;DHT22;32037;50.820;6.494;2022-09-24T05:36:14;17.10;55.30
46309;DHT22;32037;50.820;6.494;2022-09-24T05:38:42;17.10;55.20
46309;DHT22;32037;50.820;6.494;2022-09-24T05:41:11;17.10;55.20
46309;DHT22;32037;50.820;6.494;2022-09-24T05:43:40;17.10;55.30
46309;DHT22;32037;50.820;6.494;2022-09-24T05:46:08;17.10;55.20
46309;DHT22;32037;50.820;6.494;2022-09-24T05:51:36;17.10;55.30
46309;DHT22;32037;50.820;6.494;2022-09-24T05:54:04;17.10;55.40
46309;DHT22;32037;50.820;6.494;2022-09-24T05:56:33;17.10;55.40
46309;DHT22;32037;50.820;6.494;2022-09-24T05:59:02;17.10;55.30
46309;DHT22;32037;50.820;6.494;2022-09-24T06:01:30;17.10;55.30
46309;DHT22;32037;50.820;6.494;2022-09-24T06:03:59;17.10;55.30
46309;DHT22;32037;50.820;6.494;2022-09-24T06:06:35;17.10;55.30
46309;DHT22;32037;50.820;6.494;2022-09-24T06:09:04;17.10;55.40
46309;DHT22;32037;50.820;6.494;2022-09-24T06:11:35;17.10;55.50
46309;DHT22;32037;50.820;6.494;2022-09-24T06:14:07;17.10;55.40
46309;DHT22;32037;50.820;6.494;2022-09-24T06:16:35;17.10;55.40
46309;DHT22;32037;50.820;6.494;2022-09-24T06:19:04;17.10;55.40
46309;DHT22;32037;50.820;6.494;2022-09-24T06:21:33;17.10;55.40
46309;DHT22;32037;50.820;6.494;2022-09-24T06:24:02;17.10;55.40
46309;DHT22;32037;50.820;6.494;2022-09-24T06:26:31;17.10;55.40
46309;DHT22;32037;50.820;6.494;2022-09-24T06:29:00;17.10;55.40
46309;DHT22;32037;50.820;6.494;2022-09-24T06:31:31;17.10;55.50
46309;DHT22;32037;50.820;6.494;2022-09-24T06:34:00;17.00;55.40
46309;DHT22;32037;50.820;6.494;2022-09-24T06:36:29;17.10;55.60
46309;DHT22;32037;50.820;6.494;2022-09-24T06:38:58;17.10;55.60
46309;DHT22;32037;50.820;6.494;2022-09-24T06:41:28;17.00;55.50
46309;DHT22;32037;50.820;6.494;2022-09-24T06:43:56;17.00;55.40
46309;DHT22;32037;50.820;6.494;2022-09-24T06:46:25;17.00;55.40
46309;DHT22;32037;50.820;6.494;2022-09-24T06:48:53;17.00;55.50
46309;DHT22;32037;50.820;6.494;2022-09-24T06:51:22;17.00;55.50
46309;DHT22;32037;50.820;6.494;2022-09-24T06:53:51;17.00;55.70
46309;DHT22;32037;50.820;6.494;2022-09-24T06:56:19;17.00;55.50
46309;DHT22;32037;50.820;6.494;2022-09-24T06:58:49;17.10;55.60
46309;DHT22;32037;50.820;6.494;2022-09-24T07:01:18;17.00;55.50
46309;DHT22;32037;50.820;6.494;2022-09-24T07:03:47;17.00;55.60
46309;DHT22;32037;50.820;6.494;2022-09-24T07:06:15;17.00;55.60
46309;DHT22;32037;50.820;6.494;2022-09-24T07:08:44;17.00;55.70
46309;DHT22;32037;50.820;6.494;2022-09-24T07:11:16;17.00;55.70
46309;DHT22;32037;50.820;6.494;2022-09-24T07:13:45;17.00;55.50
46309;DHT22;32037;50.820;6.494;2022-09-24T07:16:15;17.00;55.50
46309;DHT22;32037;50.820;6.494;2022-09-24T07:18:43;17.00;55.50
46309;DHT22;32037;50.820;6.494;2022-09-24T07:21:14;17.00;55.40
46309;DHT22;32037;50.820;6.494;2022-09-24T07:23:42;17.00;55.50
46309;DHT22;32037;50.820;6.494;2022-09-24T07:26:10;17.00;55.80
46309;DHT22;32037;50.820;6.494;2022-09-24T07:28:39;17.00;55.70
46309;DHT22;32037;50.820;6.494;2022-09-24T07:31:08;17.00;55.70
46309;DHT22;32037;50.820;6.494;2022-09-24T07:33:38;17.00;55.60
46309;DHT22;32037;50.820;6.494;2022-09-24T07:36:09;17.00;55.60
46309;DHT22;32037;50.820;6.494;2022-09-24T07:38:38;17.00;55.60
46309;DHT22;32037;50.820;6.494;2022-09-24T07:41:06;17.00;55.60
46309;DHT22;32037;50.820;6.494;2022-09-24T07:43:35;17.00;55.60
46309;DHT22;32037;50.820;6.494;2022-09-24T07:46:05;17.00;55.70
46309;DHT22;32037;50.820;6.494;2022-09-24T07:48:34;17.00;58.70
46309;DHT22;32037;50.820;6.494;2022-09-24T07:51:04;17.00;59.50
46309;DHT22;32037;50.820;6.494;2022-09-24T07:53:32;17.00;59.90
46309;DHT22;32037;50.820;6.494;2022-09-24T07:56:01;16.90;60.50
46309;DHT22;32037;50.820;6.494;2022-09-24T07:58:30;16.90;59.70
46309;DHT22;32037;50.820;6.494;2022-09-24T08:00:58;17.00;59.30
46309;DHT22;32037;50.820;6.494;2022-09-24T08:03:27;17.00;61.50
46309;DHT22;32037;50.820;6.494;2022-09-24T08:05:55;17.00;61.00
46309;DHT22;32037;50.820;6.494;2022-09-24T08:08:27;17.00;61.00
46309;DHT22;32037;50.820;6.494;2022-09-24T08:10:56;17.00;61.10
46309;DHT22;32037;50.820;6.494;2022-09-24T08:13:24;17.00;61.00
46309;DHT22;32037;50.820;6.494;2022-09-24T08:15:57;17.00;60.20
46309;DHT22;32037;50.820;6.494;2022-09-24T08:18:27;17.00;60.00
46309;DHT22;32037;50.820;6.494;2022-09-24T08:20:57;17.00;59.50
46309;DHT22;32037;50.820;6.494;2022-09-24T08:23:27;17.00;59.30
46309;DHT22;32037;50.820;6.494;2022-09-24T08:25:55;17.00;59.30
46309;DHT22;32037;50.820;6.494;2022-09-24T08:28:25;17.00;60.00
46309;DHT22;32037;50.820;6.494;2022-09-24T08:30:57;17.00;59.80
46309;DHT22;32037;50.820;6.494;2022-09-24T08:33:26;17.00;59.80
46309;DHT22;32037;50.820;6.494;2022-09-24T08:35:54;17.00;59.30
46309;DHT22;32037;50.820;6.494;2022-09-24T08:38:27;17.00;59.70
46309;DHT22;32037;50.820;6.494;2022-09-24T08:40:59;17.00;59.10
46309;DHT22;32037;50.820;6.494;2022-09-24T08:43:39;17.00;59.20
46309;DHT22;32037;50.820;6.494;2022-09-24T08:46:14;17.00;59.30
46309;DHT22;32037;50.820;6.494;2022-09-24T08:49:01;17.00;59.20
46309;DHT22;32037;50.820;6.494;2022-09-24T08:51:45;17.00;59.00
46309;DHT22;32037;50.820;6.494;2022-09-24T08:54:19;17.00;58.90
46309;DHT22;32037;50.820;6.494;2022-09-24T08:56:51;17.00;58.80
46309;DHT22;32037;50.820;6.494;2022-09-24T08:59:27;17.00;58.60
46309;DHT22;32037;50.820;6.494;2022-09-24T09:02:14;17.00;58.60
46309;DHT22;32037;50.820;6.494;2022-09-24T09:04:55;17.00;58.60
46309;DHT22;32037;50.820;6.494;2022-09-24T09:07:29;17.00;58.90
46309;DHT22;32037;50.820;6.494;2022-09-24T09:10:02;17.00;58.60
46309;DHT22;32037;50.820;6.494;2022-09-24T09:12:34;17.00;58.70
46309;DHT22;32037;50.820;6.494;2022-09-24T09:15:08;17.00;58.60
46309;DHT22;32037;50.820;6.494;2022-09-24T09:17:41;17.00;58.60
46309;DHT22;32037;50.820;6.494;2022-09-24T09:20:16;17.00;58.60
46309;DHT22;32037;50.820;6.494;2022-09-24T09:22:47;17.00;58.30
46309;DHT22;32037;50.820;6.494;2022-09-24T09:25:21;17.00;59.00
46309;DHT22;32037;50.820;6.494;2022-09-24T09:27:52;17.00;58.30
46309;DHT22;32037;50.820;6.494;2022-09-24T09:30:22;17.00;58.60
46309;DHT22;32037;50.820;6.494;2022-09-24T09:35:49;17.00;58.10
46309;DHT22;32037;50.820;6.494;2022-09-24T09:38:23;17.10;58.40
46309;DHT22;32037;50.820;6.494;2022-09-24T09:40:58;17.00;58.10
46309;DHT22;32037;50.820;6.494;2022-09-24T09:43:30;17.00;58.10
46309;DHT22;32037;50.820;6.494;2022-09-24T09:46:05;17.00;58.20
46309;DHT22;32037;50.820;6.494;2022-09-24T09:48:43;17.00;58.10
46309;DHT22;32037;50.820;6.494;2022-09-24T09:51:16;17.00;58.10
46309;DHT22;32037;50.820;6.494;2022-09-24T09:53:56;17.00;58.10
46309;DHT22;32037;50.820;6.494;2022-09-24T09:56:29;17.00;58.00
46309;DHT22;32037;50.820;6.494;2022-09-24T09:59:04;17.00;58.10
46309;DHT22;32037;50.820;6.494;2022-09-24T10:01:34;17.00;57.80
46309;DHT22;32037;50.820;6.494;2022-09-24T10:04:03;17.00;57.90
46309;DHT22;32037;50.820;6.494;2022-09-24T10:06:34;17.00;58.10
46309;DHT22;32037;50.820;6.494;2022-09-24T10:09:07;17.00;58.10
46309;DHT22;32037;50.820;6.494;2022-09-24T10:11:40;17.00;58.00
46309;DHT22;32037;50.820;6.494;2022-09-24T10:14:10;17.00;57.90
46309;DHT22;32037;50.820;6.494;2022-09-24T10:16:41;17.00;58.10
46309;DHT22;32037;50.820;6.494;2022-09-24T10:19:19;17.00;58.00
46309;DHT22;32037;50.820;6.494;2022-09-24T10:21:50;17.00;57.90
46309;DHT22;32037;50.820;6.494;2022-09-24T10:24:21;17.00;57.90
46309;DHT22;32037;50.820;6.494;2022-09-24T10:26:54;17.00;57.90
46309;DHT22;32037;50.820;6.494;2022-09-24T10:29:24;17.00;57.80
46309;DHT22;32037;50.820;6.494;2022-09-24T10:32:14;17.00;57.80
46309;DHT22;32037;50.820;6.494;2022-09-24T10:34:53;17.00;57.80
46309;DHT22;32037;50.820;6.494;2022-09-24T10:37:22;16.90;57.60
46309;DHT22;32037;50.820;6.494;2022-09-24T10:39:58;17.00;57.80
46309;DHT22;32037;50.820;6.494;2022-09-24T10:42:29;17.00;57.70
46309;DHT22;32037;50.820;6.494;2022-09-24T10:44:59;17.00;57.70
46309;DHT22;32037;50.820;6.494;2022-09-24T10:47:36;17.00;57.70
46309;DHT22;32037;50.820;6.494;2022-09-24T10:50:18;16.90;57.70
46309;DHT22;32037;50.820;6.494;2022-09-24T10:52:52;17.00;57.90
46309;DHT22;32037;50.820;6.494;2022-09-24T10:55:40;17.00;57.80
46309;DHT22;32037;50.820;6.494;2022-09-24T10:58:26;16.90;57.60
46309;DHT22;32037;50.820;6.494;2022-09-24T11:01:08;16.90;57.60
46309;DHT22;32037;50.820;6.494;2022-09-24T11:04:06;16.90;57.70
46309;DHT22;32037;50.820;6.494;2022-09-24T11:06:46;16.90;57.60
46309;DHT22;32037;50.820;6.494;2022-09-24T11:09:23;16.90;57.60
46309;DHT22;32037;50.820;6.494;2022-09-24T11:12:00;16.90;57.60
46309;DHT22;32037;50.820;6.494;2022-09-24T11:14:46;16.90;57.70
46309;DHT22;32037;50.820;6.494;2022-09-24T11:17:24;16.90;57.80
46309;DHT22;32037;50.820;6.494;2022-09-24T11:20:15;16.90;57.70
46309;DHT22;32037;50.820;6.494;2022-09-24T11:22:56;16.90;57.60
46309;DHT22;32037;50.820;6.494;2022-09-24T11:25:33;16.90;57.70
46309;DHT22;32037;50.820;6.494;2022-09-24T11:28:25;16.90;57.60
46309;DHT22;32037;50.820;6.494;2022-09-24T11:31:39;16.90;57.70
46309;DHT22;32037;50.820;6.494;2022-09-24T11:34:20;16.90;57.60
46309;DHT22;32037;50.820;6.494;2022-09-24T11:37:05;16.90;57.50
46309;DHT22;32037;50.820;6.494;2022-09-24T11:39:59;16.90;57.40
46309;DHT22;32037;50.820;6.494;2022-09-24T11:42:37;16.90;57.40
46309;DHT22;32037;50.820;6.494;2022-09-24T11:45:30;16.90;57.50
46309;DHT22;32037;50.820;6.494;2022-09-24T11:48:18;16.90;57.40
46309;DHT22;32037;50.820;6.494;2022-09-24T11:50:58;16.90;57.50
46309;DHT22;32037;50.820;6.494;2022-09-24T11:53:35;16.90;57.40
46309;DHT22;32037;50.820;6.494;2022-09-24T11:56:12;16.90;57.30
46309;DHT22;32037;50.820;6.494;2022-09-24T11:58:45;17.00;57.50
46309;DHT22;32037;50.820;6.494;2022-09-24T12:01:20;17.00;57.60
46309;DHT22;32037;50.820;6.494;2022-09-24T12:03:56;16.90;57.50
46309;DHT22;32037;50.820;6.494;2022-09-24T12:06:30;16.90;57.30
46309;DHT22;32037;50.820;6.494;2022-09-24T12:09:06;16.90;57.40
46309;DHT22;32037;50.820;6.494;2022-09-24T12:11:40;16.90;57.30
46309;DHT22;32037;50.820;6.494;2022-09-24T12:14:16;16.90;57.30
46309;DHT22;32037;50.820;6.494;2022-09-24T12:16:48;16.90;57.30
46309;DHT22;32037;50.820;6.494;2022-09-24T12:19:23;17.00;57.50
46309;DHT22;32037;50.820;6.494;2022-09-24T12:21:54;16.90;57.40
46309;DHT22;32037;50.820;6.494;2022-09-24T12:24:27;16.90;57.30
46309;DHT22;32037;50.820;6.494;2022-09-24T12:27:01;16.90;57.20
46309;DHT22;32037;50.820;6.494;2022-09-24T12:29:40;16.90;57.40
46309;DHT22;32037;50.820;6.494;2022-09-24T12:32:35;17.00;57.70
46309;DHT22;32037;50.820;6.494;2022-09-24T12:35:43;16.90;57.40
46309;DHT22;32037;50.820;6.494;2022-09-24T12:38:17;17.00;57.70
46309;DHT22;32037;50.820;6.494;2022-09-24T12:43:57;16.90;57.50
46309;DHT22;32037;50.820;6.494;2022-09-24T12:46:28;17.00;57.50
46309;DHT22;32037;50.820;6.494;2022-09-24T12:48:59;16.90;57.40
46309;DHT22;32037;50.820;6.494;2022-09-24T12:51:36;17.00;57.50
46309;DHT22;32037;50.820;6.494;2022-09-24T12:54:14;17.00;57.50
46309;DHT22;32037;50.820;6.494;2022-09-24T12:56:46;17.00;57.50
46309;DHT22;32037;50.820;6.494;2022-09-24T12:59:25;17.00;57.60
46309;DHT22;32037;50.820;6.494;2022-09-24T13:02:05;17.00;57.50
46309;DHT22;32037;50.820;6.494;2022-09-24T13:04:34;17.00;57.50
46309;DHT22;32037;50.820;6.494;2022-09-24T13:07:32;17.00;57.50
46309;DHT22;32037;50.820;6.494;2022-09-24T13:10:19;17.00;57.40
46309;DHT22;32037;50.820;6.494;2022-09-24T13:12:48;17.00;57.50
46309;DHT22;32037;50.820;6.494;2022-09-24T13:15:29;17.00;57.40
46309;DHT22;32037;50.820;6.494;2022-09-24T13:18:18;16.90;57.30
46309;DHT22;32037;50.820;6.494;2022-09-24T13:20:57;17.00;57.40
46309;DHT22;32037;50.820;6.494;2022-09-24T13:23:42;17.00;59.10
46309;DHT22;32037;50.820;6.494;2022-09-24T13:26:14;17.00;57.50
46309;DHT22;32037;50.820;6.494;2022-09-24T13:28:54;17.00;57.60
46309;DHT22;32037;50.820;6.494;2022-09-24T13:31:37;17.00;57.40
46309;DHT22;32037;50.820;6.494;2022-09-24T13:34:17;17.00;57.50
46309;DHT22;32037;50.820;6.494;2022-09-24T13:36:53;17.00;57.40
46309;DHT22;32037;50.820;6.494;2022-09-24T13:39:30;17.00;57.50
46309;DHT22;32037;50.820;6.494;2022-09-24T13:42:06;17.00;57.40
46309;DHT22;32037;50.820;6.494;2022-09-24T13:44:37;17.00;57.40
46309;DHT22;32037;50.820;6.494;2022-09-24T13:47:12;17.00;57.30
46309;DHT22;32037;50.820;6.494;2022-09-24T13:49:44;17.00;57.50
46309;DHT22;32037;50.820;6.494;2022-09-24T13:52:21;17.00;57.50
46309;DHT22;32037;50.820;6.494;2022-09-24T13:54:57;17.00;57.30
46309;DHT22;32037;50.820;6.494;2022-09-24T13:57:28;17.00;57.80
46309;DHT22;32037;50.820;6.494;2022-09-24T14:00:12;17.00;58.50
46309;DHT22;32037;50.820;6.494;2022-09-24T14:02:43;17.00;60.90
46309;DHT22;32037;50.820;6.494;2022-09-24T14:05:19;17.00;59.60
46309;DHT22;32037;50.820;6.494;2022-09-24T14:07:56;17.00;58.70
46309;DHT22;32037;50.820;6.494;2022-09-24T14:10:27;17.00;58.50
46309;DHT22;32037;50.820;6.494;2022-09-24T14:13:00;17.00;58.60
46309;DHT22;32037;50.820;6.494;2022-09-24T14:15:29;17.00;58.60
46309;DHT22;32037;50.820;6.494;2022-09-24T14:17:58;17.00;58.60
46309;DHT22;32037;50.820;6.494;2022-09-24T14:20:29;17.00;58.50
46309;DHT22;32037;50.820;6.494;2022-09-24T14:23:01;17.00;58.60
46309;DHT22;32037;50.820;6.494;2022-09-24T14:25:34;17.00;58.50
46309;DHT22;32037;50.820;6.494;2022-09-24T14:28:05;17.00;58.50
46309;DHT22;32037;50.820;6.494;2022-09-24T14:30:35;17.00;58.50
46309;DHT22;32037;50.820;6.494;2022-09-24T14:33:13;17.00;58.40
46309;DHT22;32037;50.820;6.494;2022-09-24T14:35:45;17.00;58.40
46309;DHT22;32037;50.820;6.494;2022-09-24T14:38:17;17.00;58.30
46309;DHT22;32037;50.820;6.494;2022-09-24T14:40:50;17.00;58.30
46309;DHT22;32037;50.820;6.494;2022-09-24T14:43:23;17.00;58.20
46309;DHT22;32037;50.820;6.494;2022-09-24T14:46:00;17.00;58.20
46309;DHT22;32037;50.820;6.494;2022-09-24T14:48:31;17.00;58.10
46309;DHT22;32037;50.820;6.494;2022-09-24T14:50:59;17.00;58.20
46309;DHT22;32037;50.820;6.494;2022-09-24T14:53:30;17.00;58.20
46309;DHT22;32037;50.820;6.494;2022-09-24T14:56:17;17.00;58.10
46309;DHT22;32037;50.820;6.494;2022-09-24T14:58:46;17.00;58.10
46309;DHT22;32037;50.820;6.494;2022-09-24T15:01:16;17.00;58.10
46309;DHT22;32037;50.820;6.494;2022-09-24T15:03:48;17.00;58.20
46309;DHT22;32037;50.820;6.494;2022-09-24T15:06:20;17.00;58.20
46309;DHT22;32037;50.820;6.494;2022-09-24T15:08:59;17.00;58.20
46309;DHT22;32037;50.820;6.494;2022-09-24T15:11:32;17.00;58.30
46309;DHT22;32037;50.820;6.494;2022-09-24T15:14:11;17.00;58.20
46309;DHT22;32037;50.820;6.494;2022-09-24T15:16:41;17.00;58.10
46309;DHT22;32037;50.820;6.494;2022-09-24T15:19:14;17.00;58.40
46309;DHT22;32037;50.820;6.494;2022-09-24T15:21:46;17.00;58.50
46309;DHT22;32037;50.820;6.494;2022-09-24T15:24:16;17.00;58.40
46309;DHT22;32037;50.820;6.494;2022-09-24T15:26:58;17.00;58.60
46309;DHT22;32037;50.820;6.494;2022-09-24T15:29:27;17.00;58.60
46309;DHT22;32037;50.820;6.494;2022-09-24T15:31:57;17.00;59.20
46309;DHT22;32037;50.820;6.494;2022-09-24T15:34:25;17.00;58.50
46309;DHT22;32037;50.820;6.494;2022-09-24T15:36:56;17.00;58.70
46309;DHT22;32037;50.820;6.494;2022-09-24T15:39:26;17.00;58.60
46309;DHT22;32037;50.820;6.494;2022-09-24T15:41:56;17.00;58.50
46309;DHT22;32037;50.820;6.494;2022-09-24T15:44:25;17.00;58.80
46309;DHT22;32037;50.820;6.494;2022-09-24T15:47:00;17.00;58.30
46309;DHT22;32037;50.820;6.494;2022-09-24T15:49:28;17.00;58.40
46309;DHT22;32037;50.820;6.494;2022-09-24T15:52:01;17.00;58.30
46309;DHT22;32037;50.820;6.494;2022-09-24T15:54:32;17.00;58.90
46309;DHT22;32037;50.820;6.494;2022-09-24T15:57:02;17.00;59.00
46309;DHT22;32037;50.820;6.494;2022-09-24T15:59:31;17.00;58.60
46309;DHT22;32037;50.820;6.494;2022-09-24T16:02:01;17.00;58.60
46309;DHT22;32037;50.820;6.494;2022-09-24T16:04:31;17.00;58.50
46309;DHT22;32037;50.820;6.494;2022-09-24T16:07:01;17.00;58.70
46309;DHT22;32037;50.820;6.494;2022-09-24T16:09:30;17.00;62.20
46309;DHT22;32037;50.820;6.494;2022-09-24T16:11:59;17.00;64.80
46309;DHT22;32037;50.820;6.494;2022-09-24T16:14:28;17.00;65.70
46309;DHT22;32037;50.820;6.494;2022-09-24T16:16:57;17.00;66.50
46309;DHT22;32037;50.820;6.494;2022-09-24T16:19:25;17.00;66.90
46309;DHT22;32037;50.820;6.494;2022-09-24T16:21:55;17.00;66.70
46309;DHT22;32037;50.820;6.494;2022-09-24T16:24:26;16.90;68.30
46309;DHT22;32037;50.820;6.494;2022-09-24T16:26:54;16.90;66.60
46309;DHT22;32037;50.820;6.494;2022-09-24T16:29:23;17.00;66.30
46309;DHT22;32037;50.820;6.494;2022-09-24T16:31:53;17.00;65.60
46309;DHT22;32037;50.820;6.494;2022-09-24T16:34:21;17.00;64.50
46309;DHT22;32037;50.820;6.494;2022-09-24T16:36:50;17.00;63.90
46309;DHT22;32037;50.820;6.494;2022-09-24T16:39:18;17.00;63.50
46309;DHT22;32037;50.820;6.494;2022-09-24T16:41:47;17.00;63.20
46309;DHT22;32037;50.820;6.494;2022-09-24T16:44:16;17.00;62.80
46309;DHT22;32037;50.820;6.494;2022-09-24T16:46:45;17.00;62.50
46309;DHT22;32037;50.820;6.494;2022-09-24T16:49:15;17.00;62.50
46309;DHT22;32037;50.820;6.494;2022-09-24T16:51:43;17.00;62.40
46309;DHT22;32037;50.820;6.494;2022-09-24T16:54:12;17.00;62.00
46309;DHT22;32037;50.820;6.494;2022-09-24T16:56:40;17.00;61.90